sensor_id;sensor_type;location;lat;lon;timestamp;temperature;humidity
78541;SHT31;67835;51.968;5.646;2023-05-10T00:02:07;17.1;70.5
78541;SHT31;67835;51.968;5.646;2023-05-10T00:04:36;17.0;70.8
78541;SHT31;67835;51.968;5.646;2023-05-10T00:07:04;17.0;70.7
78541;SHT31;67835;51.968;5.646;2023-05-10T00:09:33;17.0;70.8
78541;SHT31;67835;51.968;5.646;2023-05-10T00:12:02;17.0;70.9
78541;SHT31;67835;51.968;5.646;2023-05-10T00:14:30;17.0;70.9
78541;SHT31;67835;51.968;5.646;2023-05-10T00:17:00;17.0;70.9
78541;SHT31;67835;51.968;5.646;2023-05-10T00:19:29;17.0;71.1
78541;SHT31;67835;51.968;5.646;2023-05-10T00:21:58;17.0;71.0
78541;SHT31;67835;51.968;5.646;2023-05-10T00:24:28;17.0;70.9
78541;SHT31;67835;51.968;5.646;2023-05-10T00:26:57;17.0;70.7
78541;SHT31;67835;51.968;5.646;2023-05-10T00:29:27;17.0;70.7
78541;SHT31;67835;51.968;5.646;2023-05-10T00:31:56;17.0;70.7
78541;SHT31;67835;51.968;5.646;2023-05-10T00:34:25;17.0;70.6
78541;SHT31;67835;51.968;5.646;2023-05-10T00:36:53;17.0;70.7
78541;SHT31;67835;51.968;5.646;2023-05-10T00:39:23;17.0;70.7
78541;SHT31;67835;51.968;5.646;2023-05-10T00:41:52;17.0;70.8
78541;SHT31;67835;51.968;5.646;2023-05-10T00:44:22;17.0;70.9
78541;SHT31;67835;51.968;5.646;2023-05-10T00:46:51;16.9;71.0
78541;SHT31;67835;51.968;5.646;2023-05-10T00:49:20;16.9;71.1
78541;SHT31;67835;51.968;5.646;2023-05-10T00:51:50;16.9;71.3
78541;SHT31;67835;51.968;5.646;2023-05-10T00:54:19;16.9;71.5
78541;SHT31;67835;51.968;5.646;2023-05-10T00:56:48;16.8;71.8
78541;SHT31;67835;51.968;5.646;2023-05-10T00:59:18;16.8;72.1
78541;SHT31;67835;51.968;5.646;2023-05-10T01:01:50;16.8;72.3
78541;SHT31;67835;51.968;5.646;2023-05-10T01:04:20;16.8;72.7
78541;SHT31;67835;51.968;5.646;2023-05-10T01:06:52;16.8;72.8
78541;SHT31;67835;51.968;5.646;2023-05-10T01:09:21;16.7;72.9
78541;SHT31;67835;51.968;5.646;2023-05-10T01:11:53;16.7;73.1
78541;SHT31;67835;51.968;5.646;2023-05-10T01:14:23;16.7;73.2
78541;SHT31;67835;51.968;5.646;2023-05-10T01:16:54;16.8;73.3
78541;SHT31;67835;51.968;5.646;2023-05-10T01:19:26;16.8;73.4
78541;SHT31;67835;51.968;5.646;2023-05-10T01:22:15;16.9;73.4
78541;SHT31;67835;51.968;5.646;2023-05-10T01:25:22;17.0;72.5
78541;SHT31;67835;51.968;5.646;2023-05-10T01:29:27;17.1;71.8
78541;SHT31;67835;51.968;5.646;2023-05-10T01:32:07;17.1;71.5
78541;SHT31;67835;51.968;5.646;2023-05-10T01:34:52;17.1;71.4
78541;SHT31;67835;51.968;5.646;2023-05-10T01:37:31;17.1;71.5
78541;SHT31;67835;51.968;5.646;2023-05-10T01:40:13;17.1;71.3
78541;SHT31;67835;51.968;5.646;2023-05-10T01:42:49;17.1;71.2
78541;SHT31;67835;51.968;5.646;2023-05-10T01:45:27;17.1;71.1
78541;SHT31;67835;51.968;5.646;2023-05-10T01:48:05;17.0;71.0
78541;SHT31;67835;51.968;5.646;2023-05-10T01:50:36;17.0;71.0
78541;SHT31;67835;51.968;5.646;2023-05-10T01:53:09;17.0;71.1
78541;SHT31;67835;51.968;5.646;2023-05-10T01:55:46;17.0;71.2
78541;SHT31;67835;51.968;5.646;2023-05-10T01:58:20;17.0;71.1
78541;SHT31;67835;51.968;5.646;2023-05-10T02:00:50;17.0;71.4
78541;SHT31;67835;51.968;5.646;2023-05-10T02:03:24;17.0;71.2
78541;SHT31;67835;51.968;5.646;2023-05-10T02:05:55;16.9;71.3
78541;SHT31;67835;51.968;5.646;2023-05-10T02:08:24;16.9;71.3
78541;SHT31;67835;51.968;5.646;2023-05-10T02:10:57;16.9;71.6
78541;SHT31;67835;51.968;5.646;2023-05-10T02:13:29;16.9;71.6
78541;SHT31;67835;51.968;5.646;2023-05-10T02:16:02;16.9;71.7
78541;SHT31;67835;51.968;5.646;2023-05-10T02:18:34;16.9;71.4
78541;SHT31;67835;51.968;5.646;2023-05-10T02:21:07;16.9;71.1
78541;SHT31;67835;51.968;5.646;2023-05-10T02:23:36;16.9;70.9
78541;SHT31;67835;51.968;5.646;2023-05-10T02:26:06;16.9;70.7
78541;SHT31;67835;51.968;5.646;2023-05-10T02:28:39;16.9;70.3
78541;SHT31;67835;51.968;5.646;2023-05-10T02:31:10;16.9;70.1
78541;SHT31;67835;51.968;5.646;2023-05-10T02:33:40;16.9;69.9
78541;SHT31;67835;51.968;5.646;2023-05-10T02:36:13;16.9;70.0
78541;SHT31;67835;51.968;5.646;2023-05-10T02:38:43;16.9;70.0
78541;SHT31;67835;51.968;5.646;2023-05-10T02:41:15;16.9;69.9
78541;SHT31;67835;51.968;5.646;2023-05-10T02:43:47;16.9;70.2
78541;SHT31;67835;51.968;5.646;2023-05-10T02:46:19;16.9;70.2
78541;SHT31;67835;51.968;5.646;2023-05-10T02:48:48;16.9;69.7
78541;SHT31;67835;51.968;5.646;2023-05-10T02:51:20;16.9;69.2
78541;SHT31;67835;51.968;5.646;2023-05-10T02:53:53;16.9;69.0
78541;SHT31;67835;51.968;5.646;2023-05-10T02:56:29;16.9;68.8
78541;SHT31;67835;51.968;5.646;2023-05-10T02:59:02;16.9;69.1
78541;SHT31;67835;51.968;5.646;2023-05-10T03:01:33;16.9;69.0
78541;SHT31;67835;51.968;5.646;2023-05-10T03:04:02;16.8;69.1
78541;SHT31;67835;51.968;5.646;2023-05-10T03:06:31;16.8;69.3
78541;SHT31;67835;51.968;5.646;2023-05-10T03:09:02;16.8;69.2
78541;SHT31;67835;51.968;5.646;2023-05-10T03:11:43;16.8;69.4
78541;SHT31;67835;51.968;5.646;2023-05-10T03:14:24;16.8;69.7
78541;SHT31;67835;51.968;5.646;2023-05-10T03:17:00;16.8;69.6
78541;SHT31;67835;51.968;5.646;2023-05-10T03:19:34;16.8;69.7
78541;SHT31;67835;51.968;5.646;2023-05-10T03:22:13;16.8;69.9
78541;SHT31;67835;51.968;5.646;2023-05-10T03:24:46;16.8;70.1
78541;SHT31;67835;51.968;5.646;2023-05-10T03:27:18;16.9;69.8
78541;SHT31;67835;51.968;5.646;2023-05-10T03:29:48;17.0;68.7
78541;SHT31;67835;51.968;5.646;2023-05-10T03:32:19;17.1;68.0
78541;SHT31;67835;51.968;5.646;2023-05-10T03:34:48;17.0;68.1
78541;SHT31;67835;51.968;5.646;2023-05-10T03:37:16;17.0;68.4
78541;SHT31;67835;51.968;5.646;2023-05-10T03:39:47;17.0;68.2
78541;SHT31;67835;51.968;5.646;2023-05-10T03:42:16;17.0;68.4
78541;SHT31;67835;51.968;5.646;2023-05-10T03:44:44;17.0;68.3
78541;SHT31;67835;51.968;5.646;2023-05-10T03:47:13;16.9;68.6
78541;SHT31;67835;51.968;5.646;2023-05-10T03:49:41;16.9;68.6
78541;SHT31;67835;51.968;5.646;2023-05-10T03:52:10;16.9;68.5
78541;SHT31;67835;51.968;5.646;2023-05-10T03:54:39;16.9;68.5
78541;SHT31;67835;51.968;5.646;2023-05-10T03:57:08;16.8;68.8
78541;SHT31;67835;51.968;5.646;2023-05-10T03:59:37;16.8;69.0
78541;SHT31;67835;51.968;5.646;2023-05-10T04:02:06;16.8;69.2
78541;SHT31;67835;51.968;5.646;2023-05-10T04:04:34;16.8;69.3
78541;SHT31;67835;51.968;5.646;2023-05-10T04:07:05;16.7;69.4
78541;SHT31;67835;51.968;5.646;2023-05-10T04:09:34;16.7;69.4
78541;SHT31;67835;51.968;5.646;2023-05-10T04:12:03;16.7;69.3
78541;SHT31;67835;51.968;5.646;2023-05-10T04:14:32;16.6;69.6
78541;SHT31;67835;51.968;5.646;2023-05-10T04:17:00;16.6;69.9
78541;SHT31;67835;51.968;5.646;2023-05-10T04:19:31;16.6;69.9
78541;SHT31;67835;51.968;5.646;2023-05-10T04:22:02;16.6;69.9
78541;SHT31;67835;51.968;5.646;2023-05-10T04:24:33;16.5;70.1
78541;SHT31;67835;51.968;5.646;2023-05-10T04:27:02;16.5;70.0
78541;SHT31;67835;51.968;5.646;2023-05-10T04:29:30;16.5;70.0
78541;SHT31;67835;51.968;5.646;2023-05-10T04:31:59;16.6;69.9
78541;SHT31;67835;51.968;5.646;2023-05-10T04:34:27;16.6;69.8
78541;SHT31;67835;51.968;5.646;2023-05-10T04:36:56;16.6;69.9
78541;SHT31;67835;51.968;5.646;2023-05-10T04:39:25;16.6;70.0
78541;SHT31;67835;51.968;5.646;2023-05-10T04:41:53;16.6;69.9
78541;SHT31;67835;51.968;5.646;2023-05-10T04:44:24;16.7;69.8
78541;SHT31;67835;51.968;5.646;2023-05-10T04:46:53;16.7;69.9
78541;SHT31;67835;51.968;5.646;2023-05-10T04:49:22;16.7;69.7
78541;SHT31;67835;51.968;5.646;2023-05-10T04:51:51;16.8;69.5
78541;SHT31;67835;51.968;5.646;2023-05-10T04:54:20;16.8;69.4
78541;SHT31;67835;51.968;5.646;2023-05-10T04:56:48;16.8;69.3
78541;SHT31;67835;51.968;5.646;2023-05-10T04:59:17;16.8;69.3
78541;SHT31;67835;51.968;5.646;2023-05-10T05:01:47;16.8;69.4
78541;SHT31;67835;51.968;5.646;2023-05-10T05:04:15;16.9;69.6
78541;SHT31;67835;51.968;5.646;2023-05-10T05:06:44;16.9;69.4
78541;SHT31;67835;51.968;5.646;2023-05-10T05:09:12;16.9;69.4
78541;SHT31;67835;51.968;5.646;2023-05-10T05:11:40;16.9;69.6
78541;SHT31;67835;51.968;5.646;2023-05-10T05:14:09;16.9;69.6
78541;SHT31;67835;51.968;5.646;2023-05-10T05:16:38;16.9;69.8
78541;SHT31;67835;51.968;5.646;2023-05-10T05:19:06;16.9;69.2
78541;SHT31;67835;51.968;5.646;2023-05-10T05:21:35;16.9;69.1
78541;SHT31;67835;51.968;5.646;2023-05-10T05:24:04;16.9;69.1
78541;SHT31;67835;51.968;5.646;2023-05-10T05:26:34;16.9;69.4
78541;SHT31;67835;51.968;5.646;2023-05-10T05:29:05;16.9;69.9
78541;SHT31;67835;51.968;5.646;2023-05-10T05:31:33;17.0;69.4
78541;SHT31;67835;51.968;5.646;2023-05-10T05:34:01;17.1;68.8
78541;SHT31;67835;51.968;5.646;2023-05-10T05:36:30;17.1;68.6
78541;SHT31;67835;51.968;5.646;2023-05-10T05:38:59;17.1;68.6
78541;SHT31;67835;51.968;5.646;2023-05-10T05:41:28;17.1;68.6
78541;SHT31;67835;51.968;5.646;2023-05-10T05:43:57;17.1;68.7
78541;SHT31;67835;51.968;5.646;2023-05-10T05:46:26;17.1;68.8
78541;SHT31;67835;51.968;5.646;2023-05-10T05:48:54;17.1;69.1
78541;SHT31;67835;51.968;5.646;2023-05-10T05:51:23;17.1;69.3
78541;SHT31;67835;51.968;5.646;2023-05-10T05:53:52;17.1;69.2
78541;SHT31;67835;51.968;5.646;2023-05-10T05:56:20;17.1;69.4
78541;SHT31;67835;51.968;5.646;2023-05-10T05:58:51;17.1;69.2
78541;SHT31;67835;51.968;5.646;2023-05-10T06:01:20;17.1;69.3
78541;SHT31;67835;51.968;5.646;2023-05-10T06:03:48;17.1;69.2
78541;SHT31;67835;51.968;5.646;2023-05-10T06:06:17;17.1;69.2
78541;SHT31;67835;51.968;5.646;2023-05-10T06:08:45;17.1;69.5
78541;SHT31;67835;51.968;5.646;2023-05-10T06:11:14;17.1;69.6
78541;SHT31;67835;51.968;5.646;2023-05-10T06:13:42;17.1;69.9
78541;SHT31;67835;51.968;5.646;2023-05-10T06:16:13;17.1;69.0
78541;SHT31;67835;51.968;5.646;2023-05-10T06:18:42;17.1;69.6
78541;SHT31;67835;51.968;5.646;2023-05-10T06:21:10;17.1;69.2
78541;SHT31;67835;51.968;5.646;2023-05-10T06:23:39;17.2;68.9
78541;SHT31;67835;51.968;5.646;2023-05-10T06:26:08;17.2;69.3
78541;SHT31;67835;51.968;5.646;2023-05-10T06:28:36;17.2;68.9
78541;SHT31;67835;51.968;5.646;2023-05-10T06:31:06;17.3;68.8
78541;SHT31;67835;51.968;5.646;2023-05-10T06:33:35;17.3;68.3
78541;SHT31;67835;51.968;5.646;2023-05-10T06:36:04;17.3;68.7
78541;SHT31;67835;51.968;5.646;2023-05-10T06:38:33;17.3;68.4
78541;SHT31;67835;51.968;5.646;2023-05-10T06:41:01;17.3;68.6
78541;SHT31;67835;51.968;5.646;2023-05-10T06:43:30;17.3;68.4
78541;SHT31;67835;51.968;5.646;2023-05-10T06:45:59;17.3;69.3
78541;SHT31;67835;51.968;5.646;2023-05-10T06:48:27;17.3;69.1
78541;SHT31;67835;51.968;5.646;2023-05-10T06:50:56;17.3;69.0
78541;SHT31;67835;51.968;5.646;2023-05-10T06:53:25;17.3;69.8
78541;SHT31;67835;51.968;5.646;2023-05-10T06:55:54;17.3;69.4
78541;SHT31;67835;51.968;5.646;2023-05-10T06:58:22;17.3;69.4
78541;SHT31;67835;51.968;5.646;2023-05-10T07:00:51;17.3;68.7
78541;SHT31;67835;51.968;5.646;2023-05-10T07:03:19;17.3;68.8
78541;SHT31;67835;51.968;5.646;2023-05-10T07:05:48;17.2;69.1
78541;SHT31;67835;51.968;5.646;2023-05-10T07:08:16;17.2;69.8
78541;SHT31;67835;51.968;5.646;2023-05-10T07:10:45;17.3;69.7
78541;SHT31;67835;51.968;5.646;2023-05-10T07:13:13;17.3;70.2
78541;SHT31;67835;51.968;5.646;2023-05-10T07:15:42;17.3;69.7
78541;SHT31;67835;51.968;5.646;2023-05-10T07:18:10;17.4;69.6
78541;SHT31;67835;51.968;5.646;2023-05-10T07:20:39;17.5;68.7
78541;SHT31;67835;51.968;5.646;2023-05-10T07:23:08;17.5;68.4
78541;SHT31;67835;51.968;5.646;2023-05-10T07:25:36;17.5;67.6
78541;SHT31;67835;51.968;5.646;2023-05-10T07:28:05;17.6;67.9
78541;SHT31;67835;51.968;5.646;2023-05-10T07:30:34;17.6;67.5
78541;SHT31;67835;51.968;5.646;2023-05-10T07:33:02;17.6;67.9
78541;SHT31;67835;51.968;5.646;2023-05-10T07:35:31;17.7;68.0
78541;SHT31;67835;51.968;5.646;2023-05-10T07:38:00;17.9;67.0
78541;SHT31;67835;51.968;5.646;2023-05-10T07:40:28;18.0;66.6
78541;SHT31;67835;51.968;5.646;2023-05-10T07:42:58;18.1;67.2
78541;SHT31;67835;51.968;5.646;2023-05-10T07:45:29;18.2;66.9
78541;SHT31;67835;51.968;5.646;2023-05-10T07:47:57;18.3;66.1
78541;SHT31;67835;51.968;5.646;2023-05-10T07:50:26;18.4;64.3
78541;SHT31;67835;51.968;5.646;2023-05-10T07:52:55;18.4;63.3
78541;SHT31;67835;51.968;5.646;2023-05-10T07:55:23;18.4;63.6
78541;SHT31;67835;51.968;5.646;2023-05-10T07:57:52;18.5;62.8
78541;SHT31;67835;51.968;5.646;2023-05-10T08:00:21;18.5;63.7
78541;SHT31;67835;51.968;5.646;2023-05-10T08:02:49;18.5;62.0
78541;SHT31;67835;51.968;5.646;2023-05-10T08:05:19;18.5;61.5
78541;SHT31;67835;51.968;5.646;2023-05-10T08:07:47;18.5;61.1
78541;SHT31;67835;51.968;5.646;2023-05-10T08:10:16;18.5;61.3
78541;SHT31;67835;51.968;5.646;2023-05-10T08:12:45;18.5;61.4
78541;SHT31;67835;51.968;5.646;2023-05-10T08:15:15;18.5;61.8
78541;SHT31;67835;51.968;5.646;2023-05-10T08:17:44;18.5;64.0
78541;SHT31;67835;51.968;5.646;2023-05-10T08:20:15;18.5;62.9
78541;SHT31;67835;51.968;5.646;2023-05-10T08:22:45;18.5;61.9
78541;SHT31;67835;51.968;5.646;2023-05-10T08:25:14;18.6;61.5
78541;SHT31;67835;51.968;5.646;2023-05-10T08:27:43;18.7;60.1
78541;SHT31;67835;51.968;5.646;2023-05-10T08:30:12;18.8;60.2
78541;SHT31;67835;51.968;5.646;2023-05-10T08:32:41;18.9;59.3
78541;SHT31;67835;51.968;5.646;2023-05-10T08:35:09;18.9;59.0
78541;SHT31;67835;51.968;5.646;2023-05-10T08:37:38;19.0;57.7
78541;SHT31;67835;51.968;5.646;2023-05-10T08:40:08;19.0;57.8
78541;SHT31;67835;51.968;5.646;2023-05-10T08:42:45;19.1;58.2
78541;SHT31;67835;51.968;5.646;2023-05-10T08:45:20;19.2;58.2
78541;SHT31;67835;51.968;5.646;2023-05-10T08:47:52;19.3;58.4
78541;SHT31;67835;51.968;5.646;2023-05-10T08:50:21;19.4;57.4
78541;SHT31;67835;51.968;5.646;2023-05-10T08:52:53;19.6;56.2
78541;SHT31;67835;51.968;5.646;2023-05-10T08:55:23;19.7;56.0
78541;SHT31;67835;51.968;5.646;2023-05-10T08:57:52;19.8;54.8
78541;SHT31;67835;51.968;5.646;2023-05-10T09:00:22;19.9;55.5
78541;SHT31;67835;51.968;5.646;2023-05-10T09:02:52;20.0;54.8
78541;SHT31;67835;51.968;5.646;2023-05-10T09:05:20;20.2;55.7
78541;SHT31;67835;51.968;5.646;2023-05-10T09:07:49;20.3;54.0
78541;SHT31;67835;51.968;5.646;2023-05-10T09:10:19;20.4;53.7
78541;SHT31;67835;51.968;5.646;2023-05-10T09:12:48;20.5;54.0
78541;SHT31;67835;51.968;5.646;2023-05-10T09:15:20;20.6;53.7
78541;SHT31;67835;51.968;5.646;2023-05-10T09:17:50;20.7;53.9
78541;SHT31;67835;51.968;5.646;2023-05-10T09:20:18;20.7;52.9
78541;SHT31;67835;51.968;5.646;2023-05-10T09:22:47;20.8;53.0
78541;SHT31;67835;51.968;5.646;2023-05-10T09:25:16;20.8;52.9
78541;SHT31;67835;51.968;5.646;2023-05-10T09:27:47;20.8;52.3
78541;SHT31;67835;51.968;5.646;2023-05-10T09:30:23;20.9;52.3
78541;SHT31;67835;51.968;5.646;2023-05-10T09:32:53;20.9;53.2
78541;SHT31;67835;51.968;5.646;2023-05-10T09:35:24;20.9;52.5
78541;SHT31;67835;51.968;5.646;2023-05-10T09:37:55;20.9;51.6
78541;SHT31;67835;51.968;5.646;2023-05-10T09:40:28;21.0;52.3
78541;SHT31;67835;51.968;5.646;2023-05-10T09:42:59;21.1;51.8
78541;SHT31;67835;51.968;5.646;2023-05-10T09:45:30;21.1;51.5
78541;SHT31;67835;51.968;5.646;2023-05-10T09:48:01;21.1;52.1
78541;SHT31;67835;51.968;5.646;2023-05-10T09:50:30;21.1;51.5
78541;SHT31;67835;51.968;5.646;2023-05-10T09:53:02;21.1;52.2
78541;SHT31;67835;51.968;5.646;2023-05-10T09:55:42;21.1;52.6
78541;SHT31;67835;51.968;5.646;2023-05-10T09:58:13;21.1;52.3
78541;SHT31;67835;51.968;5.646;2023-05-10T10:00:44;21.1;52.2
78541;SHT31;67835;51.968;5.646;2023-05-10T10:03:16;21.1;53.0
78541;SHT31;67835;51.968;5.646;2023-05-10T10:05:46;21.2;53.1
78541;SHT31;67835;51.968;5.646;2023-05-10T10:08:17;21.2;52.5
78541;SHT31;67835;51.968;5.646;2023-05-10T10:10:47;21.2;51.8
78541;SHT31;67835;51.968;5.646;2023-05-10T10:13:16;21.2;51.7
78541;SHT31;67835;51.968;5.646;2023-05-10T10:15:45;21.2;52.6
78541;SHT31;67835;51.968;5.646;2023-05-10T10:18:17;21.2;52.7
78541;SHT31;67835;51.968;5.646;2023-05-10T10:20:50;21.3;53.7
78541;SHT31;67835;51.968;5.646;2023-05-10T10:23:18;21.3;51.8
78541;SHT31;67835;51.968;5.646;2023-05-10T10:25:50;21.3;52.3
78541;SHT31;67835;51.968;5.646;2023-05-10T10:28:30;21.4;51.7
78541;SHT31;67835;51.968;5.646;2023-05-10T10:31:13;21.4;51.2
78541;SHT31;67835;51.968;5.646;2023-05-10T10:33:55;21.4;52.0
78541;SHT31;67835;51.968;5.646;2023-05-10T10:36:27;21.5;50.1
78541;SHT31;67835;51.968;5.646;2023-05-10T10:39:00;21.5;51.2
78541;SHT31;67835;51.968;5.646;2023-05-10T10:41:35;21.5;51.0
78541;SHT31;67835;51.968;5.646;2023-05-10T10:44:33;21.5;51.2
78541;SHT31;67835;51.968;5.646;2023-05-10T10:47:08;21.5;51.4
78541;SHT31;67835;51.968;5.646;2023-05-10T10:49:49;21.5;50.3
78541;SHT31;67835;51.968;5.646;2023-05-10T10:52:24;21.5;51.9
78541;SHT31;67835;51.968;5.646;2023-05-10T10:54:59;21.5;51.0
78541;SHT31;67835;51.968;5.646;2023-05-10T10:57:32;21.5;50.7
78541;SHT31;67835;51.968;5.646;2023-05-10T11:00:20;21.5;50.5
78541;SHT31;67835;51.968;5.646;2023-05-10T11:02:50;21.5;51.5
78541;SHT31;67835;51.968;5.646;2023-05-10T11:07:19;21.4;51.4
78541;SHT31;67835;51.968;5.646;2023-05-10T11:09:48;21.4;52.1
78541;SHT31;67835;51.968;5.646;2023-05-10T11:12:18;21.3;52.2
78541;SHT31;67835;51.968;5.646;2023-05-10T11:14:51;21.3;52.4
78541;SHT31;67835;51.968;5.646;2023-05-10T11:17:27;21.3;52.0
78541;SHT31;67835;51.968;5.646;2023-05-10T11:20:10;21.3;51.7
78541;SHT31;67835;51.968;5.646;2023-05-10T11:22:54;21.2;52.6
78541;SHT31;67835;51.968;5.646;2023-05-10T11:25:28;21.2;52.4
78541;SHT31;67835;51.968;5.646;2023-05-10T11:27:56;21.2;52.7
78541;SHT31;67835;51.968;5.646;2023-05-10T11:30:25;21.3;52.3
78541;SHT31;67835;51.968;5.646;2023-05-10T11:32:54;21.3;52.4
78541;SHT31;67835;51.968;5.646;2023-05-10T11:35:23;21.4;51.5
78541;SHT31;67835;51.968;5.646;2023-05-10T11:37:51;21.5;51.7
78541;SHT31;67835;51.968;5.646;2023-05-10T11:40:21;21.5;51.7
78541;SHT31;67835;51.968;5.646;2023-05-10T11:42:51;21.6;51.8
78541;SHT31;67835;51.968;5.646;2023-05-10T11:45:23;21.7;51.8
78541;SHT31;67835;51.968;5.646;2023-05-10T11:47:53;21.9;50.9
78541;SHT31;67835;51.968;5.646;2023-05-10T11:50:22;22.1;51.7
78541;SHT31;67835;51.968;5.646;2023-05-10T11:52:52;22.3;52.1
78541;SHT31;67835;51.968;5.646;2023-05-10T11:55:21;22.5;51.0
78541;SHT31;67835;51.968;5.646;2023-05-10T11:57:54;22.7;49.7
78541;SHT31;67835;51.968;5.646;2023-05-10T12:00:22;22.9;50.3
78541;SHT31;67835;51.968;5.646;2023-05-10T12:02:53;23.0;48.5
78541;SHT31;67835;51.968;5.646;2023-05-10T12:05:22;23.2;48.4
78541;SHT31;67835;51.968;5.646;2023-05-10T12:07:51;23.3;47.4
78541;SHT31;67835;51.968;5.646;2023-05-10T12:10:27;23.4;47.8
78541;SHT31;67835;51.968;5.646;2023-05-10T12:12:56;23.5;47.9
78541;SHT31;67835;51.968;5.646;2023-05-10T12:15:25;23.6;47.2
78541;SHT31;67835;51.968;5.646;2023-05-10T12:17:54;23.7;47.2
78541;SHT31;67835;51.968;5.646;2023-05-10T12:20:24;23.7;47.4
78541;SHT31;67835;51.968;5.646;2023-05-10T12:22:57;23.8;47.2
78541;SHT31;67835;51.968;5.646;2023-05-10T12:25:32;23.9;45.3
78541;SHT31;67835;51.968;5.646;2023-05-10T12:28:03;24.0;45.7
78541;SHT31;67835;51.968;5.646;2023-05-10T12:30:34;24.1;45.4
78541;SHT31;67835;51.968;5.646;2023-05-10T12:33:10;24.2;46.0
78541;SHT31;67835;51.968;5.646;2023-05-10T12:35:47;24.2;45.7
78541;SHT31;67835;51.968;5.646;2023-05-10T12:38:31;24.3;44.8
78541;SHT31;67835;51.968;5.646;2023-05-10T12:41:03;24.3;44.3
78541;SHT31;67835;51.968;5.646;2023-05-10T12:43:33;24.4;43.5
78541;SHT31;67835;51.968;5.646;2023-05-10T12:46:07;24.4;44.1
78541;SHT31;67835;51.968;5.646;2023-05-10T12:48:38;24.3;44.5
78541;SHT31;67835;51.968;5.646;2023-05-10T12:51:08;24.3;44.7
78541;SHT31;67835;51.968;5.646;2023-05-10T12:53:39;24.2;44.4
78541;SHT31;67835;51.968;5.646;2023-05-10T12:56:08;24.2;44.7
78541;SHT31;67835;51.968;5.646;2023-05-10T12:58:37;24.1;45.4
78541;SHT31;67835;51.968;5.646;2023-05-10T13:01:06;23.9;45.8
78541;SHT31;67835;51.968;5.646;2023-05-10T13:03:35;23.7;45.8
78541;SHT31;67835;51.968;5.646;2023-05-10T13:06:04;23.5;46.8
78541;SHT31;67835;51.968;5.646;2023-05-10T13:08:32;23.2;48.0
78541;SHT31;67835;51.968;5.646;2023-05-10T13:11:02;23.0;47.9
78541;SHT31;67835;51.968;5.646;2023-05-10T13:13:33;22.8;49.1
78541;SHT31;67835;51.968;5.646;2023-05-10T13:16:01;22.6;49.6
78541;SHT31;67835;51.968;5.646;2023-05-10T13:18:30;22.4;50.2
78541;SHT31;67835;51.968;5.646;2023-05-10T13:20:59;22.2;50.6
78541;SHT31;67835;51.968;5.646;2023-05-10T13:23:28;22.1;51.2
78541;SHT31;67835;51.968;5.646;2023-05-10T13:25:57;21.9;51.4
78541;SHT31;67835;51.968;5.646;2023-05-10T13:28:25;21.7;51.8
78541;SHT31;67835;51.968;5.646;2023-05-10T13:30:56;21.6;52.6
78541;SHT31;67835;51.968;5.646;2023-05-10T13:33:26;21.4;54.1
78541;SHT31;67835;51.968;5.646;2023-05-10T13:35:55;21.2;56.2
78541;SHT31;67835;51.968;5.646;2023-05-10T13:38:23;21.1;57.1
78541;SHT31;67835;51.968;5.646;2023-05-10T13:40:52;21.0;58.0
78541;SHT31;67835;51.968;5.646;2023-05-10T13:43:20;20.9;59.0
78541;SHT31;67835;51.968;5.646;2023-05-10T13:45:49;20.7;59.6
78541;SHT31;67835;51.968;5.646;2023-05-10T13:48:18;20.6;60.2
78541;SHT31;67835;51.968;5.646;2023-05-10T13:50:47;20.6;62.5
78541;SHT31;67835;51.968;5.646;2023-05-10T13:53:17;20.5;61.0
78541;SHT31;67835;51.968;5.646;2023-05-10T13:55:46;20.5;60.4
78541;SHT31;67835;51.968;5.646;2023-05-10T13:58:15;20.4;59.8
78541;SHT31;67835;51.968;5.646;2023-05-10T14:00:43;20.3;59.4
78541;SHT31;67835;51.968;5.646;2023-05-10T14:03:12;20.2;60.4
78541;SHT31;67835;51.968;5.646;2023-05-10T14:05:40;20.1;60.4
78541;SHT31;67835;51.968;5.646;2023-05-10T14:08:09;20.0;61.0
78541;SHT31;67835;51.968;5.646;2023-05-10T14:10:39;19.9;61.9
78541;SHT31;67835;51.968;5.646;2023-05-10T14:13:09;19.8;62.0
78541;SHT31;67835;51.968;5.646;2023-05-10T14:15:38;19.8;62.3
78541;SHT31;67835;51.968;5.646;2023-05-10T14:18:07;19.7;63.2
78541;SHT31;67835;51.968;5.646;2023-05-10T14:20:35;19.7;62.7
78541;SHT31;67835;51.968;5.646;2023-05-10T14:23:04;19.6;62.6
78541;SHT31;67835;51.968;5.646;2023-05-10T14:25:32;19.6;62.5
78541;SHT31;67835;51.968;5.646;2023-05-10T14:28:01;19.6;63.0
78541;SHT31;67835;51.968;5.646;2023-05-10T14:30:31;19.6;62.8
78541;SHT31;67835;51.968;5.646;2023-05-10T14:33:03;19.6;62.5
78541;SHT31;67835;51.968;5.646;2023-05-10T14:35:32;19.6;61.9
78541;SHT31;67835;51.968;5.646;2023-05-10T14:38:02;19.7;61.5
78541;SHT31;67835;51.968;5.646;2023-05-10T14:40:30;19.7;61.8
78541;SHT31;67835;51.968;5.646;2023-05-10T14:42:59;19.7;61.3
78541;SHT31;67835;51.968;5.646;2023-05-10T14:45:27;19.7;60.7
78541;SHT31;67835;51.968;5.646;2023-05-10T14:47:58;19.7;61.6
78541;SHT31;67835;51.968;5.646;2023-05-10T14:50:27;19.8;60.8
78541;SHT31;67835;51.968;5.646;2023-05-10T14:52:55;19.8;60.1
78541;SHT31;67835;51.968;5.646;2023-05-10T14:55:24;19.9;60.5
78541;SHT31;67835;51.968;5.646;2023-05-10T14:57:53;19.9;60.6
78541;SHT31;67835;51.968;5.646;2023-05-10T15:00:22;20.0;60.3
78541;SHT31;67835;51.968;5.646;2023-05-10T15:02:50;20.0;60.8
78541;SHT31;67835;51.968;5.646;2023-05-10T15:05:19;20.1;61.3
78541;SHT31;67835;51.968;5.646;2023-05-10T15:07:47;20.2;61.7
78541;SHT31;67835;51.968;5.646;2023-05-10T15:10:17;20.2;60.0
78541;SHT31;67835;51.968;5.646;2023-05-10T15:12:46;20.3;60.3
78541;SHT31;67835;51.968;5.646;2023-05-10T15:15:14;20.4;61.5
78541;SHT31;67835;51.968;5.646;2023-05-10T15:17:43;20.4;60.6
78541;SHT31;67835;51.968;5.646;2023-05-10T15:20:12;20.5;61.2
78541;SHT31;67835;51.968;5.646;2023-05-10T15:22:41;20.6;61.7
78541;SHT31;67835;51.968;5.646;2023-05-10T15:25:10;20.7;62.4
78541;SHT31;67835;51.968;5.646;2023-05-10T15:27:38;20.8;61.3
78541;SHT31;67835;51.968;5.646;2023-05-10T15:30:08;21.0;59.5
78541;SHT31;67835;51.968;5.646;2023-05-10T15:32:37;21.2;59.3
78541;SHT31;67835;51.968;5.646;2023-05-10T15:35:07;21.3;59.2
78541;SHT31;67835;51.968;5.646;2023-05-10T15:37:37;21.5;58.2
78541;SHT31;67835;51.968;5.646;2023-05-10T15:40:07;21.6;57.0
78541;SHT31;67835;51.968;5.646;2023-05-10T15:42:36;21.8;56.4
78541;SHT31;67835;51.968;5.646;2023-05-10T15:45:05;21.8;55.6
78541;SHT31;67835;51.968;5.646;2023-05-10T15:47:35;21.9;55.7
78541;SHT31;67835;51.968;5.646;2023-05-10T15:50:07;22.0;54.2
78541;SHT31;67835;51.968;5.646;2023-05-10T15:52:35;22.0;54.8
78541;SHT31;67835;51.968;5.646;2023-05-10T15:55:06;22.2;54.7
78541;SHT31;67835;51.968;5.646;2023-05-10T15:57:38;22.3;54.8
78541;SHT31;67835;51.968;5.646;2023-05-10T16:00:11;22.3;54.3
78541;SHT31;67835;51.968;5.646;2023-05-10T16:02:41;22.4;53.8
78541;SHT31;67835;51.968;5.646;2023-05-10T16:05:10;22.5;53.0
78541;SHT31;67835;51.968;5.646;2023-05-10T16:07:39;22.6;52.6
78541;SHT31;67835;51.968;5.646;2023-05-10T16:10:10;22.6;51.9
78541;SHT31;67835;51.968;5.646;2023-05-10T16:12:39;22.6;51.5
78541;SHT31;67835;51.968;5.646;2023-05-10T16:15:09;22.6;52.1
78541;SHT31;67835;51.968;5.646;2023-05-10T16:17:38;22.6;52.5
78541;SHT31;67835;51.968;5.646;2023-05-10T16:20:07;22.5;52.3
78541;SHT31;67835;51.968;5.646;2023-05-10T16:22:38;22.5;51.9
78541;SHT31;67835;51.968;5.646;2023-05-10T16:25:09;22.4;52.0
78541;SHT31;67835;51.968;5.646;2023-05-10T16:27:39;22.4;52.7